Weather observations for the past three days for
Quillayute, Quillayute State Airport
Imperial (Metric)
Date Time (pdt) Wind (mph) Vis. (mi.) Weather Sky Cond. Temperature (ºF) Relative Humidity Wind Chill (°F) Heat Index (°F) Pressure Precipitation (in)
Air Dwpt 6 hour altimeter (in) sea level (mb) 1 hr 3 hr 6 hr
Max. Min.
03 21:53 N 8 10.00 Fair CLR 66 43 43% 29.8 1009.2
03 20:53 N 7 10.00 Fair CLR 66.9 44.1 44% 29.8 1008.9
03 19:53 N 5 10.00 Fair CLR 73.9 45 36% 29.79 1008.7
03 18:53 NW 9 10.00 Fair CLR 77 44.1 31% 78 29.8 1009.2
03 17:53 NW 8 10.00 Fair CLR 80.1 43 27% 79 29.82 1009.6
03 16:53 NW 7 10.00 Fair CLR 82 44.1 82.9 73 26% 80 29.83 1010.0
03 15:53 W 12 10.00 Fair CLR 80.1 48 33% 79 29.85 1010.6
03 14:53 SW 8 10.00 Fair CLR 80.1 52 38% 80 29.86 1011.2
03 13:53 SW 10 10.00 Fair CLR 77 48.9 37% 78 29.88 1011.6
03 12:53 SW 9 10.00 Fair CLR 75.9 50 40% 78 29.89 1012.0
03 11:53 W 9 10.00 Fair CLR 73.9 51.1 45% 29.89 1012.1
03 10:53 NW 6 10.00 Fair CLR 77 50 77 45 39% 78 29.9 1012.5
03 09:53 S 3 10.00 Fair CLR 70 54 57% 29.91 1012.8
03 08:53 SE 5 10.00 Fair CLR 64.9 51.1 61% 29.92 1013.2
03 07:53 Calm 10.00 Fair CLR 55 46.9 74% 29.93 1013.5
03 06:53 Calm 10.00 Fair CLR 46.9 45 93% 29.93 1013.6
03 05:53 Calm 10.00 Fair CLR 46 44.1 93% 29.93 1013.5
03 04:53 Calm 10.00 Fair CLR 46 44.1 63 46 93% 29.94 1013.9
03 03:53 Calm 10.00 Fair CLR 48 44.1 86% 29.95 1014.1
03 02:53 Calm 10.00 Fair CLR 48.9 46 90% 29.95 1014.1
03 01:53 SE 3 10.00 Fair CLR 52 46 80% 29.94 1013.9
03 00:53 E 3 10.00 Fair CLR 54 45 72% 29.94 1013.9
02 23:53 E 5 10.00 Fair CLR 55.9 46 70% 29.94 1014.0
02 22:53 N 9 10.00 Fair CLR 62.1 44.1 70 62.1 52% 29.94 1013.8
02 21:53 N 12 10.00 Fair CLR 64 46.9 54% 29.94 1013.9
02 20:53 N 8 10.00 Fair CLR 62.1 48 60% 29.93 1013.4
02 19:53 NW 8 10.00 Fair CLR 66.9 48.9 53% 29.9 1012.7
02 18:53 Calm 10.00 Fair CLR 66.9 53.1 61% 29.91 1012.8
02 17:53 SW 5 10.00 Fair CLR 66.9 53.1 61% 29.92 1013.3
02 16:53 SW 7 10.00 Fair CLR 63 52 64 57 68% 29.94 1013.8
02 15:53 SW 8 10.00 Fair CLR 62.1 52 70% 29.96 1014.6
02 14:53 W 9 10.00 Fair CLR 61 52 72% 29.98 1015.1
02 13:53 SW 9 10.00 Fair CLR 63 52 68% 29.99 1015.4
02 12:53 W 10 10.00 Fair CLR 57.9 51.1 78% 30.01 1016.2
02 11:53 W 9 10.00 Fair CLR 57.9 51.1 78% 30.02 1016.4
02 10:53 W 7 10.00 Fair CLR 57.9 50 60.1 48 75% 30.02 1016.6
02 09:53 Vrbl 5 10.00 A Few Clouds FEW009 55.9 50 81% 30.03 1017.0
02 08:53 Vrbl 3 10.00 Mostly Cloudy BKN004 51.1 48 89% 30.03 1017.1
02 07:53 NE 5 4.00 Fog/Mist OVC002 48 46.9 96% 47 30.02 1016.7
02 06:53 Calm 2.00 Fog/Mist OVC003 48 46.9 96% 30.04 1017.2
02 05:53 S 3 6.00 Fog/Mist OVC003 48 46.9 96% 30.04 1017.1
02 04:53 Calm 9.00 Overcast OVC005 48.9 46.9 51.1 48.9 93% 30.03 1016.9
02 03:53 Calm 10.00 Overcast OVC005 50 46.9 89% 30.03 1017.0
02 02:53 Calm 10.00 Overcast OVC006 50 46.9 89% 30.04 1017.1
02 01:53 Calm 10.00 Overcast OVC007 50 46.9 89% 30.04 1017.4
02 00:53 Calm 10.00 Overcast OVC007 50 48 93% 30.05 1017.5
01 23:53 N 3 10.00 Overcast OVC008 51.1 48 89% 30.05 1017.4
01 22:53 Calm 10.00 Overcast OVC009 51.1 48 59 51.1 89% 30.05 1017.5
01 21:53 N 6 10.00 Overcast OVC009 51.1 48 89% 30.05 1017.4
01 20:53 NW 6 10.00 Overcast OVC010 51.1 46.9 86% 30.04 1017.1
01 19:53 NW 6 10.00 Overcast OVC010 52 48 86% 30.03 1016.8
01 18:53 NW 8 10.00 A Few Clouds FEW100 55 48 77% 30.02 1016.6
01 17:53 NW 7 10.00 A Few Clouds FEW110 59 48 67% 30.03 1016.8
01 16:53 NW 10 10.00 Fair CLR 57.9 48 59 55.9 70% 30.03 1016.9
01 15:53 NW 10 10.00 Fair CLR 57 48.9 74% 30.05 1017.6
01 14:53 W 8 10.00 Fair CLR 57.9 50 75% 30.06 1017.8
01 13:53 NW 7 10.00 Mostly Cloudy BKN012 57 50 78% 30.07 1018.1
01 12:53 NW 9 10.00 Mostly Cloudy BKN012 57.9 51.1 78% 30.07 1018.2
01 11:53 W 9 10.00 Fair CLR 57 48.9 74% 30.06 1017.9
01 10:53 N 6 10.00 Partly Cloudy SCT011 55.9 48.9 55.9 48.9 77% 30.06 1018.0
01 09:53 NW 6 10.00 Overcast OVC008 53.1 48 83% 30.06 1018.0
01 08:53 NW 7 10.00 Overcast OVC007 51.1 48 89% 30.07 1018.1
01 07:53 N 3 10.00 Overcast OVC006 50 46.9 89% 30.06 1017.9
01 06:53 N 3 9.00 Overcast OVC006 50 48 93% 30.05 1017.5
01 05:53 N 3 10.00 Overcast OVC006 48.9 46.9 93% 30.04 1017.4
01 04:53 N 5 10.00 Overcast OVC007 50 46.9 50 46 89% 49 30.05 1017.5
01 03:53 Calm 10.00 Overcast OVC008 48.9 48 97% 30.05 1017.5
01 02:53 N 5 10.00 Overcast OVC007 50 48 93% 49 30.04 1017.4
01 01:53 Calm 10.00 Mostly Cloudy BKN006 48 46.9 96% 30.05 1017.6
01 00:53 Calm 10.00 Mostly Cloudy BKN008 48.9 48 97% 30.05 1017.7
30 23:53 Calm 10.00 Fair CLR 48 46.9 96% 30.05 1017.7
30 22:53 N 3 10.00 Fair CLR 48.9 46 64 48.9 90% 30.04 1017.4
Date Time (pdt) Wind (mph) Vis. (mi.) Weather Sky Cond. Air Dwpt Max. Min. Relative Humidity Wind Chill (°F) Heat Index (°F) altimeter (in) sea level (mb) 1 hr 3 hr 6 hr
6 hour
Temperature (ºF) Pressure Precipitation (in)